KBGM/BGM METAR and TAF weather

Enter ICAO airport designator
Station Type Date Time Source
KBGM METAR 2021/10/24 20:53 UTC NOAA

KBGM 242053Z AUTO 18004KT 10SM OVC020 09/06 A3008 RMK AO2 SLP195 T00890061 56005


Station Type Date Time Source
KBGM Decoded METAR 2021/10/24 20:53 UTC NOAA

BINGHAMTON REGIONAL AIRPORT, NY, United States (KBGM) 42-12N 75-59W 492M
Oct 24, 2021 - 04:53 PM EDT / 2021.10.24 2053 UTC
Wind: from the S (180 degrees) at 5 MPH (4 KT):0
Visibility: 10 mile(s):0
Sky conditions: overcast
Temperature: 48.0 F (8.9 C)
Dew Point: 43.0 F (6.1 C)
Relative Humidity: 82%
Pressure (altimeter): 30.08 in. Hg (1018 hPa)
Pressure tendency: 0.01 inches (0.5 hPa) lower than three hours ago
ob: KBGM 242053Z AUTO 18004KT 10SM OVC020 09/06 A3008 RMK AO2 SLP195 T00890061 56005
cycle: 21

Station Type Date Time Source
KBGM TAF 2021/10/24 19:27 UTC NOAA

TAF
AMD KBGM 241924Z 2419/2518 18005KT P6SM OVC025
FM242300 14005KT 4SM -RA BR OVC015
FM250100 14006KT 3SM RA BR OVC004
FM251200 16006KT P6SM OVC007
FM251500 18007KT P6SM OVC012

Example: see airport list